sensor_id;sensor_type;location;lat;lon;timestamp;pressure;altitude;pressure_sealevel;temperature;humidity
22283;BME280;11310;51.528;21.204;2023-01-28T00:01:16;100670.50;;;0.28;100.00
22283;BME280;11310;51.528;21.204;2023-01-28T00:03:48;100667.88;;;0.29;100.00
22283;BME280;11310;51.528;21.204;2023-01-28T00:06:16;100673.91;;;0.28;100.00
22283;BME280;11310;51.528;21.204;2023-01-28T00:08:46;100660.16;;;0.28;100.00
22283;BME280;11310;51.528;21.204;2023-01-28T00:11:16;100663.59;;;0.28;100.00
22283;BME280;11310;51.528;21.204;2023-01-28T00:13:45;100659.28;;;0.28;100.00
22283;BME280;11310;51.528;21.204;2023-01-28T00:16:13;100664.47;;;0.29;100.00
22283;BME280;11310;51.528;21.204;2023-01-28T00:18:41;100664.47;;;0.29;100.00
22283;BME280;11310;51.528;21.204;2023-01-28T00:21:11;100665.31;;;0.27;100.00
22283;BME280;11310;51.528;21.204;2023-01-28T00:23:42;100661.84;;;0.24;100.00
22283;BME280;11310;51.528;21.204;2023-01-28T00:26:16;100665.28;;;0.23;100.00
22283;BME280;11310;51.528;21.204;2023-01-28T00:28:44;100667.00;;;0.22;100.00
22283;BME280;11310;51.528;21.204;2023-01-28T00:31:15;100659.28;;;0.23;100.00
22283;BME280;11310;51.528;21.204;2023-01-28T00:33:45;100659.25;;;0.18;100.00
22283;BME280;11310;51.528;21.204;2023-01-28T00:36:14;100660.97;;;0.21;100.00
22283;BME280;11310;51.528;21.204;2023-01-28T00:38:48;100667.84;;;0.20;100.00
22283;BME280;11310;51.528;21.204;2023-01-28T00:41:20;100667.84;;;0.20;100.00
22283;BME280;11310;51.528;21.204;2023-01-28T00:43:50;100666.13;;;0.19;100.00
22283;BME280;11310;51.528;21.204;2023-01-28T00:46:20;100663.53;;;0.19;100.00
22283;BME280;11310;51.528;21.204;2023-01-28T00:48:50;100662.69;;;0.19;100.00
22283;BME280;11310;51.528;21.204;2023-01-28T00:51:19;100656.66;;;0.18;100.00
22283;BME280;11310;51.528;21.204;2023-01-28T00:53:49;100656.66;;;0.18;100.00
22283;BME280;11310;51.528;21.204;2023-01-28T00:56:19;100657.53;;;0.17;100.00
22283;BME280;11310;51.528;21.204;2023-01-28T00:58:48;100654.91;;;0.14;100.00
22283;BME280;11310;51.528;21.204;2023-01-28T01:01:19;100657.50;;;0.12;100.00
22283;BME280;11310;51.528;21.204;2023-01-28T01:03:48;100651.44;;;0.05;100.00
22283;BME280;11310;51.528;21.204;2023-01-28T01:06:24;100658.28;;;0.01;100.00
22283;BME280;11310;51.528;21.204;2023-01-28T01:08:52;100654.84;;;-0.01;100.00
22283;BME280;11310;51.528;21.204;2023-01-28T01:11:22;100663.44;;;-0.02;100.00
22283;BME280;11310;51.528;21.204;2023-01-28T01:13:52;100658.28;;;-0.02;100.00
22283;BME280;11310;51.528;21.204;2023-01-28T01:16:24;100660.84;;;-0.03;100.00
22283;BME280;11310;51.528;21.204;2023-01-28T01:18:54;100666.00;;;-0.02;100.00
22283;BME280;11310;51.528;21.204;2023-01-28T01:21:26;100659.97;;;-0.02;100.00
22283;BME280;11310;51.528;21.204;2023-01-28T01:23:54;100661.69;;;-0.03;100.00
22283;BME280;11310;51.528;21.204;2023-01-28T01:26:25;100659.97;;;-0.04;100.00
22283;BME280;11310;51.528;21.204;2023-01-28T01:28:56;100664.28;;;-0.04;100.00
22283;BME280;11310;51.528;21.204;2023-01-28T01:31:24;100656.53;;;-0.06;100.00
22283;BME280;11310;51.528;21.204;2023-01-28T01:33:53;100658.22;;;-0.09;100.00
22283;BME280;11310;51.528;21.204;2023-01-28T01:36:22;100657.34;;;-0.10;100.00
22283;BME280;11310;51.528;21.204;2023-01-28T01:38:52;100659.06;;;-0.09;100.00
22283;BME280;11310;51.528;21.204;2023-01-28T01:41:26;100662.50;;;-0.10;100.00
22283;BME280;11310;51.528;21.204;2023-01-28T01:43:57;100657.34;;;-0.10;100.00
22283;BME280;11310;51.528;21.204;2023-01-28T01:46:33;100659.97;;;-0.07;100.00
22283;BME280;11310;51.528;21.204;2023-01-28T01:49:07;100668.56;;;-0.03;100.00
22283;BME280;11310;51.528;21.204;2023-01-28T01:51:40;100665.97;;;-0.05;100.00
22283;BME280;11310;51.528;21.204;2023-01-28T01:54:10;100672.84;;;-0.04;100.00
22283;BME280;11310;51.528;21.204;2023-01-28T01:56:41;100665.97;;;-0.05;100.00
22283;BME280;11310;51.528;21.204;2023-01-28T01:59:13;100662.53;;;-0.05;100.00
22283;BME280;11310;51.528;21.204;2023-01-28T02:01:43;100665.13;;;-0.04;100.00
22283;BME280;11310;51.528;21.204;2023-01-28T02:04:18;100666.84;;;-0.03;100.00
22283;BME280;11310;51.528;21.204;2023-01-28T02:06:49;100661.69;;;-0.03;100.00
22283;BME280;11310;51.528;21.204;2023-01-28T02:09:23;100667.75;;;0.01;100.00
22283;BME280;11310;51.528;21.204;2023-01-28T02:11:54;100662.59;;;0.03;100.00
22283;BME280;11310;51.528;21.204;2023-01-28T02:14:25;100664.31;;;0.03;100.00
22283;BME280;11310;51.528;21.204;2023-01-28T02:16:58;100653.16;;;0.04;100.00
22283;BME280;11310;51.528;21.204;2023-01-28T02:19:32;100650.56;;;0.03;100.00
22283;BME280;11310;51.528;21.204;2023-01-28T02:25:33;100658.28;;;0.01;100.00
22283;BME280;11310;51.528;21.204;2023-01-28T02:28:14;100654.88;;;0.03;100.00
22283;BME280;11310;51.528;21.204;2023-01-28T02:30:51;100652.28;;;0.03;100.00
22283;BME280;11310;51.528;21.204;2023-01-28T02:33:25;100656.59;;;0.03;100.00
22283;BME280;11310;51.528;21.204;2023-01-28T02:36:00;100649.69;;;0.05;100.00
22283;BME280;11310;51.528;21.204;2023-01-28T02:38:36;100645.41;;;0.04;100.00
22283;BME280;11310;51.528;21.204;2023-01-28T02:41:13;100647.09;;;0.04;100.00
22283;BME280;11310;51.528;21.204;2023-01-28T02:43:46;100663.47;;;0.04;100.00
22283;BME280;11310;51.528;21.204;2023-01-28T02:46:20;100654.84;;;0.04;100.00
22283;BME280;11310;51.528;21.204;2023-01-28T02:49:10;100659.16;;;0.02;100.00
22283;BME280;11310;51.528;21.204;2023-01-28T02:51:59;100658.28;;;0.01;100.00
22283;BME280;11310;51.528;21.204;2023-01-28T02:54:36;100660.88;;;0.03;100.00
22283;BME280;11310;51.528;21.204;2023-01-28T02:57:15;100669.47;;;0.03;100.00
22283;BME280;11310;51.528;21.204;2023-01-28T02:59:51;100670.34;;;0.07;100.00
22283;BME280;11310;51.528;21.204;2023-01-28T03:02:28;100678.09;;;0.08;100.00
22283;BME280;11310;51.528;21.204;2023-01-28T03:05:01;100676.38;;;0.08;100.00
22283;BME280;11310;51.528;21.204;2023-01-28T03:07:33;100678.94;;;0.09;100.00
22283;BME280;11310;51.528;21.204;2023-01-28T03:10:07;100683.28;;;0.10;100.00
22283;BME280;11310;51.528;21.204;2023-01-28T03:12:39;100678.97;;;0.10;100.00
22283;BME280;11310;51.528;21.204;2023-01-28T03:15:31;100684.97;;;0.09;100.00
22283;BME280;11310;51.528;21.204;2023-01-28T03:18:23;100672.09;;;0.09;100.00
22283;BME280;11310;51.528;21.204;2023-01-28T03:21:12;100672.94;;;0.08;100.00
22283;BME280;11310;51.528;21.204;2023-01-28T03:24:04;100672.06;;;0.06;100.00
22283;BME280;11310;51.528;21.204;2023-01-28T03:26:57;100673.81;;;0.08;100.00
22283;BME280;11310;51.528;21.204;2023-01-28T03:29:56;100674.66;;;0.09;100.00
22283;BME280;11310;51.528;21.204;2023-01-28T03:32:45;100666.91;;;0.09;100.00
22283;BME280;11310;51.528;21.204;2023-01-28T03:35:33;100665.25;;;0.12;100.00
22283;BME280;11310;51.528;21.204;2023-01-28T03:38:21;100671.22;;;0.10;100.00
22283;BME280;11310;51.528;21.204;2023-01-28T03:40:54;100672.97;;;0.12;100.00
22283;BME280;11310;51.528;21.204;2023-01-28T03:43:23;100673.81;;;0.10;100.00
22283;BME280;11310;51.528;21.204;2023-01-28T03:45:52;100674.66;;;0.09;100.00
22283;BME280;11310;51.528;21.204;2023-01-28T03:48:25;100672.97;;;0.12;100.00
22283;BME280;11310;51.528;21.204;2023-01-28T03:50:55;100680.72;;;0.12;100.00
22283;BME280;11310;51.528;21.204;2023-01-28T03:53:28;100672.09;;;0.13;100.00
22283;BME280;11310;51.528;21.204;2023-01-28T03:55:57;100672.94;;;0.13;100.00
22283;BME280;11310;51.528;21.204;2023-01-28T03:58:26;100671.25;;;0.15;100.00
22283;BME280;11310;51.528;21.204;2023-01-28T04:01:13;100678.13;;;0.14;100.00
22283;BME280;11310;51.528;21.204;2023-01-28T04:03:43;100670.41;;;0.12;100.00
22283;BME280;11310;51.528;21.204;2023-01-28T04:06:15;100671.22;;;0.10;100.00
22283;BME280;11310;51.528;21.204;2023-01-28T04:08:56;100672.09;;;0.09;100.00
22283;BME280;11310;51.528;21.204;2023-01-28T04:11:32;100675.53;;;0.10;100.00
22283;BME280;11310;51.528;21.204;2023-01-28T04:14:03;100674.66;;;0.09;100.00
22283;BME280;11310;51.528;21.204;2023-01-28T04:16:41;100675.53;;;0.08;100.00
22283;BME280;11310;51.528;21.204;2023-01-28T04:19:11;100669.50;;;0.08;100.00
22283;BME280;11310;51.528;21.204;2023-01-28T04:21:41;100665.22;;;0.08;100.00
22283;BME280;11310;51.528;21.204;2023-01-28T04:24:10;100669.53;;;0.11;100.00
22283;BME280;11310;51.528;21.204;2023-01-28T04:26:38;100671.25;;;0.12;100.00
22283;BME280;11310;51.528;21.204;2023-01-28T04:29:07;100672.09;;;0.13;100.00
22283;BME280;11310;51.528;21.204;2023-01-28T04:31:36;100673.84;;;0.13;100.00
22283;BME280;11310;51.528;21.204;2023-01-28T04:34:19;100672.09;;;0.15;100.00
22283;BME280;11310;51.528;21.204;2023-01-28T04:37:20;100678.16;;;0.17;100.00
22283;BME280;11310;51.528;21.204;2023-01-28T04:40:23;100671.25;;;0.15;100.00
22283;BME280;11310;51.528;21.204;2023-01-28T04:42:56;100672.09;;;0.15;100.00
22283;BME280;11310;51.528;21.204;2023-01-28T04:45:36;100665.25;;;0.16;100.00
22283;BME280;11310;51.528;21.204;2023-01-28T04:48:20;100663.53;;;0.17;100.00
22283;BME280;11310;51.528;21.204;2023-01-28T04:51:13;100665.28;;;0.19;100.00
22283;BME280;11310;51.528;21.204;2023-01-28T04:53:54;100666.97;;;0.18;100.00
22283;BME280;11310;51.528;21.204;2023-01-28T04:56:25;100660.13;;;0.19;100.00
22283;BME280;11310;51.528;21.204;2023-01-28T04:58:54;100675.56;;;0.20;100.00
22283;BME280;11310;51.528;21.204;2023-01-28T05:01:23;100668.69;;;0.19;100.00
22283;BME280;11310;51.528;21.204;2023-01-28T05:03:53;100668.69;;;0.18;100.00
22283;BME280;11310;51.528;21.204;2023-01-28T05:06:26;100672.13;;;0.18;100.00
22283;BME280;11310;51.528;21.204;2023-01-28T05:09:01;100677.28;;;0.18;100.00
22283;BME280;11310;51.528;21.204;2023-01-28T05:11:30;100684.16;;;0.19;100.00
22283;BME280;11310;51.528;21.204;2023-01-28T05:14:02;100691.91;;;0.19;100.00
22283;BME280;11310;51.528;21.204;2023-01-28T05:16:39;100689.34;;;0.19;100.00
22283;BME280;11310;51.528;21.204;2023-01-28T05:19:08;100691.91;;;0.19;100.00
22283;BME280;11310;51.528;21.204;2023-01-28T05:21:44;100695.38;;;0.20;100.00
22283;BME280;11310;51.528;21.204;2023-01-28T05:24:30;100693.63;;;0.17;100.00
22283;BME280;11310;51.528;21.204;2023-01-28T05:27:00;100701.34;;;0.14;100.00
22283;BME280;11310;51.528;21.204;2023-01-28T05:29:29;100703.91;;;0.14;100.00
22283;BME280;11310;51.528;21.204;2023-01-28T05:31:58;100698.78;;;0.16;100.00
22283;BME280;11310;51.528;21.204;2023-01-28T05:34:28;100702.22;;;0.18;100.00
22283;BME280;11310;51.528;21.204;2023-01-28T05:37:01;100702.22;;;0.19;100.00
22283;BME280;11310;51.528;21.204;2023-01-28T05:39:32;100701.38;;;0.20;100.00
22283;BME280;11310;51.528;21.204;2023-01-28T05:42:00;100703.97;;;0.19;100.00
22283;BME280;11310;51.528;21.204;2023-01-28T05:44:31;100701.38;;;0.19;100.00
22283;BME280;11310;51.528;21.204;2023-01-28T05:47:26;100708.28;;;0.22;100.00
22283;BME280;11310;51.528;21.204;2023-01-28T05:50:14;100713.44;;;0.22;100.00
22283;BME280;11310;51.528;21.204;2023-01-28T05:53:05;100719.44;;;0.22;100.00
22283;BME280;11310;51.528;21.204;2023-01-28T05:55:35;100717.75;;;0.22;100.00
22283;BME280;11310;51.528;21.204;2023-01-28T05:58:05;100718.56;;;0.18;100.00
22283;BME280;11310;51.528;21.204;2023-01-28T06:00:34;100717.72;;;0.19;100.00
22283;BME280;11310;51.528;21.204;2023-01-28T06:03:04;100719.44;;;0.17;100.00
22283;BME280;11310;51.528;21.204;2023-01-28T06:05:34;100711.69;;;0.17;100.00
22283;BME280;11310;51.528;21.204;2023-01-28T06:08:05;100715.09;;;0.13;100.00
22283;BME280;11310;51.528;21.204;2023-01-28T06:10:33;100718.56;;;0.18;100.00
22283;BME280;11310;51.528;21.204;2023-01-28T06:13:02;100728.88;;;0.18;100.00
22283;BME280;11310;51.528;21.204;2023-01-28T06:15:39;100727.16;;;0.17;100.00
22283;BME280;11310;51.528;21.204;2023-01-28T06:18:37;100727.16;;;0.17;100.00
22283;BME280;11310;51.528;21.204;2023-01-28T06:21:08;100729.75;;;0.17;100.00
22283;BME280;11310;51.528;21.204;2023-01-28T06:23:37;100725.44;;;0.19;100.00
22283;BME280;11310;51.528;21.204;2023-01-28T06:26:07;100727.16;;;0.20;100.00
22283;BME280;11310;51.528;21.204;2023-01-28T06:28:39;100725.47;;;0.22;100.00
22283;BME280;11310;51.528;21.204;2023-01-28T06:31:07;100721.19;;;0.22;100.00
22283;BME280;11310;51.528;21.204;2023-01-28T06:33:36;100728.03;;;0.21;100.00
22283;BME280;11310;51.528;21.204;2023-01-28T06:36:05;100716.00;;;0.20;100.00
22283;BME280;11310;51.528;21.204;2023-01-28T06:38:34;100722.88;;;0.21;100.00
22283;BME280;11310;51.528;21.204;2023-01-28T06:41:04;100735.75;;;0.19;100.00
22283;BME280;11310;51.528;21.204;2023-01-28T06:43:33;100734.91;;;0.19;100.00
22283;BME280;11310;51.528;21.204;2023-01-28T06:46:02;100733.22;;;0.22;100.00
22283;BME280;11310;51.528;21.204;2023-01-28T06:48:30;100742.66;;;0.23;100.00
22283;BME280;11310;51.528;21.204;2023-01-28T06:51:00;100746.13;;;0.22;100.00
22283;BME280;11310;51.528;21.204;2023-01-28T06:53:28;100747.84;;;0.23;100.00
22283;BME280;11310;51.528;21.204;2023-01-28T06:55:57;100744.41;;;0.22;100.00
22283;BME280;11310;51.528;21.204;2023-01-28T06:58:27;100747.00;;;0.23;100.00
22283;BME280;11310;51.528;21.204;2023-01-28T07:00:56;100752.16;;;0.23;100.00
22283;BME280;11310;51.528;21.204;2023-01-28T07:03:24;100752.13;;;0.24;100.00
22283;BME280;11310;51.528;21.204;2023-01-28T07:05:53;100756.47;;;0.26;100.00
22283;BME280;11310;51.528;21.204;2023-01-28T07:08:21;100754.72;;;0.26;100.00
22283;BME280;11310;51.528;21.204;2023-01-28T07:10:50;100757.31;;;0.28;100.00
22283;BME280;11310;51.528;21.204;2023-01-28T07:13:19;100760.78;;;0.28;100.00
22283;BME280;11310;51.528;21.204;2023-01-28T07:15:48;100756.47;;;0.28;100.00
22283;BME280;11310;51.528;21.204;2023-01-28T07:18:17;100753.03;;;0.29;100.00
22283;BME280;11310;51.528;21.204;2023-01-28T07:20:45;100764.22;;;0.32;100.00
22283;BME280;11310;51.528;21.204;2023-01-28T07:23:14;100769.41;;;0.32;100.00
22283;BME280;11310;51.528;21.204;2023-01-28T07:25:43;100769.41;;;0.32;100.00
22283;BME280;11310;51.528;21.204;2023-01-28T07:28:11;100770.25;;;0.33;100.00
22283;BME280;11310;51.528;21.204;2023-01-28T07:30:40;100774.59;;;0.35;100.00
22283;BME280;11310;51.528;21.204;2023-01-28T07:33:10;100772.00;;;0.36;100.00
22283;BME280;11310;51.528;21.204;2023-01-28T07:35:38;100767.69;;;0.35;100.00
22283;BME280;11310;51.528;21.204;2023-01-28T07:38:06;100772.00;;;0.35;100.00
22283;BME280;11310;51.528;21.204;2023-01-28T07:40:35;100770.25;;;0.33;100.00
22283;BME280;11310;51.528;21.204;2023-01-28T07:43:04;100778.00;;;0.35;100.00
22283;BME280;11310;51.528;21.204;2023-01-28T07:45:37;100775.44;;;0.37;100.00
22283;BME280;11310;51.528;21.204;2023-01-28T07:48:08;100772.88;;;0.37;100.00
22283;BME280;11310;51.528;21.204;2023-01-28T07:50:39;100778.00;;;0.35;100.00
22283;BME280;11310;51.528;21.204;2023-01-28T07:53:09;100773.72;;;0.38;100.00
22283;BME280;11310;51.528;21.204;2023-01-28T07:55:37;100766.88;;;0.41;100.00
22283;BME280;11310;51.528;21.204;2023-01-28T07:58:07;100769.47;;;0.42;100.00
22283;BME280;11310;51.528;21.204;2023-01-28T08:00:37;100770.31;;;0.43;100.00
22283;BME280;11310;51.528;21.204;2023-01-28T08:03:09;100768.59;;;0.42;100.00
22283;BME280;11310;51.528;21.204;2023-01-28T08:05:43;100776.34;;;0.43;100.00
22283;BME280;11310;51.528;21.204;2023-01-28T08:08:13;100770.31;;;0.43;100.00
22283;BME280;11310;51.528;21.204;2023-01-28T08:10:42;100775.47;;;0.43;100.00
22283;BME280;11310;51.528;21.204;2023-01-28T08:13:12;100780.63;;;0.43;100.00
22283;BME280;11310;51.528;21.204;2023-01-28T08:15:40;100783.22;;;0.43;100.00
22283;BME280;11310;51.528;21.204;2023-01-28T08:18:11;100782.38;;;0.44;100.00
22283;BME280;11310;51.528;21.204;2023-01-28T08:20:42;100779.81;;;0.44;100.00
22283;BME280;11310;51.528;21.204;2023-01-28T08:23:14;100781.53;;;0.47;100.00
22283;BME280;11310;51.528;21.204;2023-01-28T08:25:43;100780.69;;;0.49;100.00
22283;BME280;11310;51.528;21.204;2023-01-28T08:28:12;100780.69;;;0.49;100.00
22283;BME280;11310;51.528;21.204;2023-01-28T08:30:41;100783.28;;;0.49;100.00
22283;BME280;11310;51.528;21.204;2023-01-28T08:33:13;100784.09;;;0.47;100.00
22283;BME280;11310;51.528;21.204;2023-01-28T08:35:43;100782.38;;;0.47;100.00
22283;BME280;11310;51.528;21.204;2023-01-28T08:38:12;100784.09;;;0.47;100.00
22283;BME280;11310;51.528;21.204;2023-01-28T08:40:46;100784.09;;;0.47;100.00
22283;BME280;11310;51.528;21.204;2023-01-28T08:43:16;100774.66;;;0.48;100.00
22283;BME280;11310;51.528;21.204;2023-01-28T08:45:44;100774.72;;;0.57;100.00
22283;BME280;11310;51.528;21.204;2023-01-28T08:48:16;100779.00;;;0.57;100.00
22283;BME280;11310;51.528;21.204;2023-01-28T08:50:47;100781.59;;;0.57;100.00
22283;BME280;11310;51.528;21.204;2023-01-28T08:53:18;100781.63;;;0.60;100.00
22283;BME280;11310;51.528;21.204;2023-01-28T08:55:47;100779.91;;;0.60;100.00
22283;BME280;11310;51.528;21.204;2023-01-28T08:58:16;100783.34;;;0.61;100.00
22283;BME280;11310;51.528;21.204;2023-01-28T09:00:46;100782.47;;;0.62;100.00
22283;BME280;11310;51.528;21.204;2023-01-28T09:03:15;100779.06;;;0.61;100.00
22283;BME280;11310;51.528;21.204;2023-01-28T09:05:43;100785.94;;;0.64;100.00
22283;BME280;11310;51.528;21.204;2023-01-28T09:08:14;100778.22;;;0.67;100.00
22283;BME280;11310;51.528;21.204;2023-01-28T09:10:42;100792.84;;;0.68;100.00
22283;BME280;11310;51.528;21.204;2023-01-28T09:13:13;100798.03;;;0.68;100.00
22283;BME280;11310;51.528;21.204;2023-01-28T09:15:42;100789.41;;;0.69;100.00
22283;BME280;11310;51.528;21.204;2023-01-28T09:18:11;100792.88;;;0.74;100.00
22283;BME280;11310;51.528;21.204;2023-01-28T09:20:39;100784.28;;;0.75;100.00
22283;BME280;11310;51.528;21.204;2023-01-28T09:23:08;100785.19;;;0.78;100.00
22283;BME280;11310;51.528;21.204;2023-01-28T09:25:38;100788.59;;;0.79;100.00
22283;BME280;11310;51.528;21.204;2023-01-28T09:28:07;100780.84;;;0.79;100.00
22283;BME280;11310;51.528;21.204;2023-01-28T09:30:35;100792.94;;;0.83;100.00
22283;BME280;11310;51.528;21.204;2023-01-28T09:33:06;100796.38;;;0.86;100.00
22283;BME280;11310;51.528;21.204;2023-01-28T09:35:35;100794.69;;;0.87;100.00
22283;BME280;11310;51.528;21.204;2023-01-28T09:38:04;100792.94;;;0.89;100.00
22283;BME280;11310;51.528;21.204;2023-01-28T09:40:35;100790.38;;;0.90;100.00
22283;BME280;11310;51.528;21.204;2023-01-28T09:43:11;100792.97;;;0.90;100.00
22283;BME280;11310;51.528;21.204;2023-01-28T09:45:47;100786.94;;;0.91;100.00
22283;BME280;11310;51.528;21.204;2023-01-28T09:48:20;100786.94;;;0.93;100.00
22283;BME280;11310;51.528;21.204;2023-01-28T09:50:52;100784.38;;;0.94;100.00
22283;BME280;11310;51.528;21.204;2023-01-28T09:53:24;100786.13;;;0.97;100.00
22283;BME280;11310;51.528;21.204;2023-01-28T09:55:55;100780.09;;;0.96;100.00
22283;BME280;11310;51.528;21.204;2023-01-28T09:58:25;100786.13;;;0.97;100.00
22283;BME280;11310;51.528;21.204;2023-01-28T10:00:57;100792.16;;;0.97;100.00
22283;BME280;11310;51.528;21.204;2023-01-28T10:03:43;100784.41;;;0.99;100.00
22283;BME280;11310;51.528;21.204;2023-01-28T10:06:22;100786.13;;;1.00;100.00
22283;BME280;11310;51.528;21.204;2023-01-28T10:09:09;100794.75;;;1.05;100.00
22283;BME280;11310;51.528;21.204;2023-01-28T10:11:50;100785.28;;;1.07;100.00
22283;BME280;11310;51.528;21.204;2023-01-28T10:14:25;100788.72;;;1.04;100.00
22283;BME280;11310;51.528;21.204;2023-01-28T10:17:03;100788.72;;;1.01;100.00
22283;BME280;11310;51.528;21.204;2023-01-28T10:19:37;100787.00;;;1.02;100.00
22283;BME280;11310;51.528;21.204;2023-01-28T10:22:12;100787.84;;;1.01;100.00
22283;BME280;11310;51.528;21.204;2023-01-28T10:24:47;100781.84;;;0.99;100.00
22283;BME280;11310;51.528;21.204;2023-01-28T10:27:20;100788.69;;;0.97;100.00
22283;BME280;11310;51.528;21.204;2023-01-28T10:29:50;100787.84;;;0.95;100.00
22283;BME280;11310;51.528;21.204;2023-01-28T10:32:22;100776.66;;;0.96;100.00
22283;BME280;11310;51.528;21.204;2023-01-28T10:34:53;100773.22;;;0.98;100.00
22283;BME280;11310;51.528;21.204;2023-01-28T10:37:26;100774.09;;;1.03;100.00
22283;BME280;11310;51.528;21.204;2023-01-28T10:39:57;100771.50;;;1.02;100.00
22283;BME280;11310;51.528;21.204;2023-01-28T10:42:28;100774.97;;;1.04;100.00
22283;BME280;11310;51.528;21.204;2023-01-28T10:45:01;100777.56;;;1.04;100.00
22283;BME280;11310;51.528;21.204;2023-01-28T10:47:36;100773.22;;;1.04;100.00
22283;BME280;11310;51.528;21.204;2023-01-28T10:50:09;100773.22;;;1.06;100.00
22283;BME280;11310;51.528;21.204;2023-01-28T10:52:52;100768.09;;;1.09;100.00
22283;BME280;11310;51.528;21.204;2023-01-28T10:55:21;100770.69;;;1.09;100.00
22283;BME280;11310;51.528;21.204;2023-01-28T10:57:50;100772.41;;;1.10;100.00
22283;BME280;11310;51.528;21.204;2023-01-28T11:00:25;100768.97;;;1.14;100.00
22283;BME280;11310;51.528;21.204;2023-01-28T11:02:54;100760.38;;;1.16;100.00
22283;BME280;11310;51.528;21.204;2023-01-28T11:05:24;100747.47;;;1.18;100.00
22283;BME280;11310;51.528;21.204;2023-01-28T11:08:08;100751.78;;;1.20;100.00
22283;BME280;11310;51.528;21.204;2023-01-28T11:10:41;100755.22;;;1.19;100.00
22283;BME280;11310;51.528;21.204;2023-01-28T11:13:14;100747.44;;;1.21;100.00
22283;BME280;11310;51.528;21.204;2023-01-28T11:15:51;100738.84;;;1.20;100.00
22283;BME280;11310;51.528;21.204;2023-01-28T11:18:22;100743.16;;;1.21;100.00
22283;BME280;11310;51.528;21.204;2023-01-28T11:20:55;100746.59;;;1.25;100.00
22283;BME280;11310;51.528;21.204;2023-01-28T11:23:25;100740.59;;;1.24;100.00
22283;BME280;11310;51.528;21.204;2023-01-28T11:25:59;100739.69;;;1.21;100.00
22283;BME280;11310;51.528;21.204;2023-01-28T11:28:30;100743.16;;;1.21;100.00
22283;BME280;11310;51.528;21.204;2023-01-28T11:31:01;100752.63;;;1.19;100.00
22283;BME280;11310;51.528;21.204;2023-01-28T11:33:32;100744.84;;;1.15;100.00
22283;BME280;11310;51.528;21.204;2023-01-28T11:36:06;100742.28;;;1.16;100.00
22283;BME280;11310;51.528;21.204;2023-01-28T11:38:46;100741.44;;;1.19;100.00
22283;BME280;11310;51.528;21.204;2023-01-28T11:41:15;100737.97;;;1.18;100.00
22283;BME280;11310;51.528;21.204;2023-01-28T11:43:43;100735.41;;;1.20;100.00
22283;BME280;11310;51.528;21.204;2023-01-28T11:46:30;100727.66;;;1.23;100.00
22283;BME280;11310;51.528;21.204;2023-01-28T11:49:08;100720.78;;;1.22;100.00
22283;BME280;11310;51.528;21.204;2023-01-28T11:51:44;100731.94;;;1.21;100.00
22283;BME280;11310;51.528;21.204;2023-01-28T11:54:24;100721.63;;;1.19;100.00
22283;BME280;11310;51.528;21.204;2023-01-28T11:57:16;100731.94;;;1.22;100.00
22283;BME280;11310;51.528;21.204;2023-01-28T11:59:58;100723.34;;;1.23;100.00
22283;BME280;11310;51.528;21.204;2023-01-28T12:02:45;100716.44;;;1.22;100.00
22283;BME280;11310;51.528;21.204;2023-01-28T12:05:36;100725.06;;;1.20;100.00
22283;BME280;11310;51.528;21.204;2023-01-28T12:08:14;100716.44;;;1.22;100.00
22283;BME280;11310;51.528;21.204;2023-01-28T12:10:56;100720.78;;;1.22;100.00
22283;BME280;11310;51.528;21.204;2023-01-28T12:13:40;100719.91;;;1.26;100.00
22283;BME280;11310;51.528;21.204;2023-01-28T12:16:33;100719.91;;;1.24;100.00
22283;BME280;11310;51.528;21.204;2023-01-28T12:19:17;100720.75;;;1.25;100.00
22283;BME280;11310;51.528;21.204;2023-01-28T12:22:07;100718.16;;;1.23;100.00
22283;BME280;11310;51.528;21.204;2023-01-28T12:24:54;100728.50;;;1.25;100.00
22283;BME280;11310;51.528;21.204;2023-01-28T12:27:40;100723.34;;;1.25;100.00
22283;BME280;11310;51.528;21.204;2023-01-28T12:30:23;100725.03;;;1.18;100.00
22283;BME280;11310;51.528;21.204;2023-01-28T12:33:04;100724.19;;;1.15;100.00
22283;BME280;11310;51.528;21.204;2023-01-28T12:35:49;100722.47;;;1.12;100.00
22283;BME280;11310;51.528;21.204;2023-01-28T12:38:27;100727.63;;;1.11;100.00
22283;BME280;11310;51.528;21.204;2023-01-28T12:41:06;100724.16;;;1.12;100.00
22283;BME280;11310;51.528;21.204;2023-01-28T12:43:58;100713.84;;;1.12;100.00
22283;BME280;11310;51.528;21.204;2023-01-28T12:46:39;100713.84;;;1.12;100.00
22283;BME280;11310;51.528;21.204;2023-01-28T12:49:13;100717.28;;;1.11;100.00
22283;BME280;11310;51.528;21.204;2023-01-28T12:52:02;100715.56;;;1.10;100.00
22283;BME280;11310;51.528;21.204;2023-01-28T12:54:40;100714.69;;;1.06;100.00
22283;BME280;11310;51.528;21.204;2023-01-28T12:57:13;100715.53;;;1.07;100.00
22283;BME280;11310;51.528;21.204;2023-01-28T12:59:48;100722.47;;;1.08;100.00
22283;BME280;11310;51.528;21.204;2023-01-28T13:02:25;100715.53;;;1.07;100.00
22283;BME280;11310;51.528;21.204;2023-01-28T13:05:03;100715.56;;;1.10;100.00
22283;BME280;11310;51.528;21.204;2023-01-28T13:07:38;100721.59;;;1.07;100.00
22283;BME280;11310;51.528;21.204;2023-01-28T13:10:21;100719.88;;;1.08;100.00
22283;BME280;11310;51.528;21.204;2023-01-28T13:12:52;100716.41;;;1.07;100.00
22283;BME280;11310;51.528;21.204;2023-01-28T13:15:22;100712.97;;;1.08;100.00
22283;BME280;11310;51.528;21.204;2023-01-28T13:17:56;100702.63;;;1.08;100.00